Time;durP1;ratioP1;P1;durP2;ratioP2;P2;SDS_P1;SDS_P2;PMS_P1;PMS_P2;Temp;Humidity;BMP_temperature;BMP_pressure;BME280_temperature;BME280_humidity;BME280_pressure;Samples;Min_cycle;Max_cycle;Signal;HPM_P1;HPM_P2
2022/04/25 00:01:58;;;;;;;4.32;3.95;;;;;;;9.64;100.00;95217.84;5118322;27;20190;-58
2022/04/25 00:04:27;;;;;;;4.32;3.90;;;;;;;9.63;100.00;95215.38;5118328;27;20472;-59
2022/04/25 00:06:55;;;;;;;4.03;3.70;;;;;;;9.72;100.00;95211.72;5114841;27;20039;-58
2022/04/25 00:09:25;;;;;;;3.80;3.50;;;;;;;9.71;100.00;95218.00;5117293;27;20055;-58
2022/04/25 00:11:53;;;;;;;3.90;3.60;;;;;;;9.55;100.00;95208.34;5122350;27;20085;-56
2022/04/25 00:14:21;;;;;;;3.78;3.55;;;;;;;9.69;100.00;95215.53;5122948;27;20128;-58
2022/04/25 00:16:55;;;;;;;3.65;3.40;;;;;;;9.68;100.00;95218.34;5123087;27;20078;-58
2022/04/25 00:19:24;;;;;;;3.63;3.42;;;;;;;9.78;100.00;95216.31;5119717;27;20051;-58
2022/04/25 00:21:52;;;;;;;3.90;3.60;;;;;;;9.72;100.00;95215.19;5126525;27;20077;-56
2022/04/25 00:24:21;;;;;;;3.45;3.20;;;;;;;9.56;100.00;95220.50;5115528;27;20070;-59
2022/04/25 00:26:51;;;;;;;3.55;3.35;;;;;;;9.67;100.00;95219.31;5123491;27;20090;-55
2022/04/25 00:29:19;;;;;;;3.47;3.27;;;;;;;9.67;100.00;95217.53;5123794;27;20070;-58
2022/04/25 00:31:48;;;;;;;3.53;3.22;;;;;;;9.70;100.00;95213.72;5117348;27;20485;-59
2022/04/25 00:34:16;;;;;;;3.65;3.45;;;;;;;9.65;100.00;95218.66;5126423;27;20062;-59
2022/04/25 00:36:44;;;;;;;3.53;3.13;;;;;;;9.51;100.00;95215.75;5124416;27;20070;-60
2022/04/25 00:39:13;;;;;;;3.70;3.40;;;;;;;9.77;100.00;95208.59;5124807;27;20079;-58
2022/04/25 00:41:41;;;;;;;3.35;3.15;;;;;;;9.66;100.00;95215.03;5119833;27;20078;-59
2022/04/25 00:44:11;;;;;;;3.20;3.00;;;;;;;9.77;100.00;95221.75;5123473;27;20862;-59
2022/04/25 00:46:40;;;;;;;3.28;3.08;;;;;;;9.82;100.00;95214.19;5119697;27;20062;-58
2022/04/25 00:49:09;;;;;;;3.40;3.10;;;;;;;9.84;100.00;95218.28;5121961;27;20450;-59
2022/04/25 00:51:37;;;;;;;3.40;3.10;;;;;;;9.77;100.00;95213.84;5117214;27;20484;-59
2022/04/25 00:54:05;;;;;;;3.65;3.35;;;;;;;9.87;100.00;95219.72;5121234;27;20083;-61
2022/04/25 00:56:36;;;;;;;3.50;3.30;;;;;;;9.97;100.00;95226.44;5125712;27;20134;-58
2022/04/25 00:59:05;;;;;;;3.50;3.30;;;;;;;9.97;100.00;95217.72;5119953;27;20083;-60
2022/04/25 01:01:36;;;;;;;3.45;3.22;;;;;;;9.97;100.00;95220.34;5104616;27;20039;-58
2022/04/25 01:04:05;;;;;;;3.53;3.33;;;;;;;9.86;100.00;95218.09;5120484;27;20070;-59
2022/04/25 01:06:33;;;;;;;3.58;3.38;;;;;;;9.85;100.00;95212.03;5122751;27;20059;-59
2022/04/25 01:09:01;;;;;;;3.50;3.10;;;;;;;9.85;100.00;95204.13;5120257;27;20075;-58
2022/04/25 01:11:30;;;;;;;3.83;3.53;;;;;;;9.79;100.00;95210.06;5106586;27;20429;-59
2022/04/25 01:13:58;;;;;;;3.58;3.38;;;;;;;9.90;100.00;95214.94;5120122;27;20071;-58
2022/04/25 01:16:26;;;;;;;3.42;3.22;;;;;;;9.86;100.00;95218.09;5124567;27;20058;-58
2022/04/25 01:18:56;;;;;;;3.65;3.45;;;;;;;10.00;100.00;95220.00;5107889;27;20150;-56
2022/04/25 01:21:25;;;;;;;3.50;3.30;;;;;;;9.86;100.00;95213.66;5100972;28;20071;-59
2022/04/25 01:29:27;;;;;;;3.60;3.30;;;;;;;9.83;100.00;95211.34;5118207;27;20643;-59
2022/04/25 01:31:56;;;;;;;3.88;3.47;;;;;;;9.82;100.00;95222.06;5121308;27;20096;-57
2022/04/25 01:34:24;;;;;;;3.40;3.20;;;;;;;9.87;100.00;95220.56;5121345;27;20525;-57
2022/04/25 01:36:52;;;;;;;4.10;3.80;;;;;;;9.73;100.00;95226.53;5125657;27;20075;-59
2022/04/25 01:39:22;;;;;;;4.03;3.72;;;;;;;9.87;100.00;95230.25;5119082;27;20063;-59
2022/04/25 01:41:50;;;;;;;3.40;3.20;;;;;;;9.74;100.00;95226.38;5124178;27;20081;-59
2022/04/25 01:44:19;;;;;;;3.95;3.65;;;;;;;9.84;100.00;95227.97;5121158;27;20059;-58
2022/04/25 01:46:47;;;;;;;4.15;3.72;;;;;;;9.91;100.00;95221.03;5125165;27;20058;-58
2022/04/25 01:49:15;;;;;;;4.00;3.70;;;;;;;9.87;100.00;95231.09;5121403;27;20509;-59
2022/04/25 01:51:43;;;;;;;3.72;3.42;;;;;;;9.76;100.00;95231.47;5122573;27;20526;-58
2022/04/25 01:54:11;;;;;;;3.85;3.55;;;;;;;9.85;100.00;95237.53;5121208;27;20082;-56
2022/04/25 01:56:41;;;;;;;4.10;3.80;;;;;;;9.73;100.00;95226.53;5123620;27;20075;-55
2022/04/25 01:59:09;;;;;;;4.50;4.10;;;;;;;9.71;100.00;95231.97;5129005;27;20529;-57
2022/04/25 02:01:38;;;;;;;3.95;3.65;;;;;;;9.73;100.00;95229.97;5127863;27;20058;-55
2022/04/25 02:04:06;;;;;;;4.55;4.15;;;;;;;9.75;100.00;95235.91;5127525;27;20480;-59
2022/04/25 02:06:34;;;;;;;3.67;3.38;;;;;;;9.57;100.00;95232.69;5123539;27;20418;-58
2022/04/25 02:09:03;;;;;;;5.07;4.20;;;;;;;9.72;100.00;95236.25;5123724;27;20082;-58
2022/04/25 02:11:31;;;;;;;4.70;4.25;;;;;;;9.67;100.00;95235.09;5121931;27;20082;-56
2022/04/25 02:14:01;;;;;;;5.15;4.65;;;;;;;9.62;100.00;95238.25;5125386;27;20065;-60
2022/04/25 02:16:29;;;;;;;4.80;4.40;;;;;;;9.65;100.00;95237.09;5116259;27;20071;-59
2022/04/25 02:18:58;;;;;;;4.78;4.38;;;;;;;9.71;100.00;95242.50;5122988;27;20063;-56
2022/04/25 02:21:26;;;;;;;4.90;4.40;;;;;;;9.69;100.00;95235.75;5121612;27;20055;-59
2022/04/25 02:23:54;;;;;;;4.45;4.07;;;;;;;9.73;100.00;95239.69;5124982;27;20122;-57
2022/04/25 02:26:23;;;;;;;5.97;4.50;;;;;;;9.68;100.00;95242.03;5123524;27;20067;-58
2022/04/25 02:28:54;;;;;;;4.32;3.92;;;;;;;9.54;100.00;95238.28;5121620;27;20056;-58
2022/04/25 02:31:25;;;;;;;4.97;4.57;;;;;;;9.80;100.00;95245.09;5126145;27;20063;-59
2022/04/25 02:33:53;;;;;;;4.65;4.13;;;;;;;9.83;100.00;95240.31;5121317;27;20155;-59
2022/04/25 02:36:23;;;;;;;4.88;4.47;;;;;;;9.73;100.00;95247.59;5121231;27;20517;-58
2022/04/25 02:38:52;;;;;;;4.53;4.13;;;;;;;9.73;100.00;95243.13;5126562;27;20086;-56
2022/04/25 02:41:20;;;;;;;4.93;4.50;;;;;;;9.95;100.00;95246.06;5118820;27;20070;-59
2022/04/25 02:43:48;;;;;;;4.85;4.45;;;;;;;9.81;100.00;95252.84;5124108;27;20079;-56
2022/04/25 02:46:18;;;;;;;4.70;4.30;;;;;;;9.88;100.00;95245.91;5122693;27;20073;-58
2022/04/25 02:48:48;;;;;;;4.88;4.38;;;;;;;9.86;100.00;95245.25;5123058;27;20062;-58
2022/04/25 02:51:17;;;;;;;4.43;4.03;;;;;;;9.69;100.00;95244.47;5122143;27;20552;-58
2022/04/25 02:53:46;;;;;;;5.23;4.83;;;;;;;9.90;100.00;95256.25;5123662;27;20088;-58
2022/04/25 02:56:14;;;;;;;5.30;4.80;;;;;;;9.92;100.00;95255.09;5120252;27;20493;-59
2022/04/25 02:58:42;;;;;;;5.25;4.82;;;;;;;9.90;100.00;95256.25;5122914;27;20054;-59
2022/04/25 03:01:11;;;;;;;5.20;4.75;;;;;;;9.89;100.00;95258.06;5125198;27;20051;-57
2022/04/25 03:03:39;;;;;;;5.88;5.35;;;;;;;9.78;100.00;95261.09;5124010;27;20167;-60
2022/04/25 03:06:10;;;;;;;6.65;5.32;;;;;;;9.77;100.00;95258.59;5122244;27;20082;-59
2022/04/25 03:08:40;;;;;;;5.50;5.00;;;;;;;9.73;100.00;95266.03;5122171;27;20105;-58
2022/04/25 03:11:10;;;;;;;5.72;5.13;;;;;;;9.65;100.00;95258.97;5121313;27;20070;-59
2022/04/25 03:13:39;;;;;;;6.10;5.53;;;;;;;9.86;100.00;95265.50;5124507;27;22126;-59
2022/04/25 03:16:07;;;;;;;6.80;5.93;;;;;;;9.88;100.00;95266.97;5121264;27;20070;-55
2022/04/25 03:18:36;;;;;;;5.95;5.30;;;;;;;9.70;100.00;95275.09;5123752;27;20070;-59
2022/04/25 03:21:05;;;;;;;6.47;5.88;;;;;;;9.81;100.00;95273.09;5123893;27;20109;-58
2022/04/25 03:23:37;;;;;;;6.85;6.10;;;;;;;9.77;100.00;95262.06;5125916;27;20457;-57
2022/04/25 03:26:05;;;;;;;;;;;;;;;9.73;100.00;95272.09;5123733;27;20067;-59
2022/04/25 03:28:33;;;;;;;6.25;5.65;;;;;;;9.83;100.00;95269.28;5118520;27;19974;-59
2022/04/25 03:31:01;;;;;;;7.15;6.35;;;;;;;9.87;100.00;95270.56;5121299;27;20430;-56
2022/04/25 03:33:31;;;;;;;6.22;5.43;;;;;;;9.97;100.00;95259.84;5120270;27;20078;-57
2022/04/25 03:36:01;;;;;;;7.00;5.47;;;;;;;9.79;100.00;95267.16;5123746;27;20461;-60
2022/04/25 03:38:30;;;;;;;8.37;6.57;;;;;;;9.72;100.00;95265.19;5117764;27;21065;-59
2022/04/25 03:41:01;;;;;;;7.05;6.35;;;;;;;9.82;100.00;95272.91;5119662;27;20896;-58
2022/04/25 03:43:31;;;;;;;7.03;6.30;;;;;;;9.68;100.00;95279.69;5118512;27;20063;-59
2022/04/25 03:46:01;;;;;;;7.50;6.70;;;;;;;9.95;100.00;95278.47;5122079;27;20051;-56
2022/04/25 03:48:29;;;;;;;8.20;6.93;;;;;;;9.87;100.00;95282.94;5120729;27;20050;-58
2022/04/25 03:50:57;;;;;;;7.45;6.45;;;;;;;9.83;100.00;95285.06;5121358;27;20071;-59
2022/04/25 03:53:26;;;;;;;7.20;6.50;;;;;;;9.62;100.00;95287.44;5124516;27;20079;-58
2022/04/25 03:58:41;;;;;;;8.25;7.30;;;;;;;9.87;100.00;95288.19;5119095;27;20077;-57
2022/04/25 04:01:09;;;;;;;7.90;6.53;;;;;;;9.81;100.00;95302.06;5117631;27;20482;-56
2022/04/25 04:03:38;;;;;;;7.93;6.78;;;;;;;9.81;100.00;95302.06;5127327;27;20062;-59
2022/04/25 04:06:07;;;;;;;10.18;7.15;;;;;;;9.80;100.00;95301.22;5117587;27;20090;-59
2022/04/25 04:08:36;;;;;;;10.85;7.85;;;;;;;9.90;100.00;95290.50;5111183;27;20086;-55
2022/04/25 04:11:05;;;;;;;8.05;7.18;;;;;;;9.81;100.00;95305.50;5110186;27;20067;-58
2022/04/25 04:13:33;;;;;;;8.85;7.15;;;;;;;9.69;100.00;95310.28;5116431;27;20070;-56
2022/04/25 04:16:04;;;;;;;11.68;8.63;;;;;;;9.82;100.00;95314.22;5109984;28;20517;-57
2022/04/25 04:18:32;;;;;;;10.77;8.35;;;;;;;9.81;100.00;95321.31;5116248;27;20449;-58
2022/04/25 04:21:00;;;;;;;11.32;8.65;;;;;;;9.77;100.00;95316.53;5122823;27;20074;-60
2022/04/25 04:23:34;;;;;;;11.98;9.30;;;;;;;9.87;100.00;95323.25;5122786;27;20082;-57
2022/04/25 04:26:03;;;;;;;11.73;8.40;;;;;;;9.82;100.00;95336.09;5116580;27;20075;-58
2022/04/25 04:28:31;;;;;;;10.73;8.05;;;;;;;9.75;100.00;95346.47;5118842;27;20078;-53
2022/04/25 04:30:59;;;;;;;11.45;8.98;;;;;;;9.72;100.00;95338.91;5116926;27;20071;-54
2022/04/25 04:33:29;;;;;;;11.07;9.05;;;;;;;9.88;100.00;95345.16;5124713;27;20062;-57
2022/04/25 04:38:44;;;;;;;11.77;9.60;;;;;;;9.86;100.00;95360.28;5118479;27;20078;-56
2022/04/25 04:41:13;;;;;;;12.32;9.30;;;;;;;9.82;100.00;95372.97;5118602;27;20063;-55
2022/04/25 04:43:41;;;;;;;13.32;9.77;;;;;;;9.82;100.00;95366.88;5117938;27;20505;-56
2022/04/25 04:46:10;;;;;;;9.30;7.45;;;;;;;9.72;100.00;95372.31;5117147;27;20078;-59
2022/04/25 04:48:40;;;;;;;10.68;8.23;;;;;;;9.81;100.00;95381.84;5123837;27;20066;-58
2022/04/25 04:51:08;;;;;;;11.85;9.60;;;;;;;9.75;100.00;95382.50;5110390;27;20075;-58
2022/04/25 04:53:36;;;;;;;10.25;7.95;;;;;;;9.64;100.00;95381.03;5121813;27;20551;-58
2022/04/25 04:56:05;;;;;;;11.30;9.07;;;;;;;9.59;100.00;95385.97;5122274;27;20071;-56
2022/04/25 04:58:39;;;;;;;10.85;9.20;;;;;;;9.71;100.00;95392.56;5121802;27;20108;-56
2022/04/25 05:01:08;;;;;;;10.80;8.70;;;;;;;9.79;100.00;95398.78;5115188;27;20410;-56
2022/04/25 05:03:37;;;;;;;12.70;10.30;;;;;;;9.81;100.00;95389.75;5120237;27;20063;-56
2022/04/25 05:06:07;;;;;;;13.60;10.23;;;;;;;9.57;100.00;95400.28;5121766;27;20562;-58
2022/04/25 05:08:35;;;;;;;13.25;10.20;;;;;;;9.64;100.00;95409.19;5109765;28;20079;-56
2022/04/25 05:11:05;;;;;;;13.95;9.77;;;;;;;9.60;100.00;95410.47;5120262;27;20092;-57
2022/04/25 05:13:33;;;;;;;12.90;10.85;;;;;;;9.77;100.00;95406.03;5122058;27;20539;-58
2022/04/25 05:16:01;;;;;;;13.80;10.40;;;;;;;9.82;100.00;95409.00;5112793;27;20063;-58
2022/04/25 05:18:32;;;;;;;13.60;10.65;;;;;;;9.86;100.00;95412.94;5129265;27;20117;-59
2022/04/25 05:21:00;;;;;;;16.88;11.90;;;;;;;9.88;100.00;95418.88;5124890;27;20086;-57
2022/04/25 05:23:30;;;;;;;15.80;11.90;;;;;;;9.99;100.00;95415.91;5121808;27;20544;-56
2022/04/25 05:25:59;;;;;;;15.18;11.32;;;;;;;10.00;100.00;95420.16;5118354;27;20058;-57
2022/04/25 05:28:28;;;;;;;15.10;11.68;;;;;;;10.04;100.00;95421.47;5118949;28;20055;-57
2022/04/25 05:30:56;;;;;;;15.00;12.07;;;;;;;10.06;100.00;95424.78;5119303;27;20051;-58
2022/04/25 05:33:25;;;;;;;15.07;11.60;;;;;;;10.25;100.00;95422.75;5129217;28;20050;-56
2022/04/25 05:35:53;;;;;;;15.68;12.10;;;;;;;10.21;100.00;95435.44;5127781;27;20091;-58
2022/04/25 05:38:22;;;;;;;18.00;14.05;;;;;;;10.12;100.00;95425.94;5122061;28;20370;-55
2022/04/25 05:40:52;;;;;;;19.20;14.07;;;;;;;10.12;100.00;95441.72;5118416;28;20062;-57
2022/04/25 05:43:20;;;;;;;19.70;14.38;;;;;;;10.32;100.00;95440.38;5120194;28;20059;-59
2022/04/25 05:45:48;;;;;;;17.98;13.80;;;;;;;10.18;100.00;95441.84;5116062;28;20059;-55
2022/04/25 05:53:49;;;;;;;18.20;13.98;;;;;;;10.32;100.00;95456.19;5115916;28;20473;-59
2022/04/25 05:56:19;;;;;;;20.58;13.15;;;;;;;10.35;100.00;95457.69;5119437;28;20063;-56
2022/04/25 05:58:47;;;;;;;18.07;13.53;;;;;;;10.47;100.00;95466.06;5116069;28;20043;-58
2022/04/25 06:01:16;;;;;;;17.95;14.15;;;;;;;10.52;100.00;95459.28;5116308;28;21064;-58
2022/04/25 06:03:44;;;;;;;19.60;13.07;;;;;;;10.41;100.00;95471.00;5108606;28;20063;-60
2022/04/25 06:06:13;;;;;;;19.70;14.38;;;;;;;10.56;100.00;95467.69;5115706;28;20522;-57
2022/04/25 06:08:41;;;;;;;19.33;13.88;;;;;;;10.53;100.00;95476.75;5109539;28;20208;-58
2022/04/25 06:11:09;;;;;;;19.70;15.15;;;;;;;10.53;100.00;95476.75;5107020;28;20074;-59
2022/04/25 06:13:39;;;;;;;17.77;13.13;;;;;;;10.36;100.00;95483.06;5118602;28;20060;-59
2022/04/25 06:16:07;;;;;;;20.23;14.23;;;;;;;10.53;100.00;95482.03;5121470;28;20067;-58
2022/04/25 06:18:35;;;;;;;16.88;13.48;;;;;;;10.48;100.00;95486.97;5114846;28;20457;-59
2022/04/25 06:21:04;;;;;;;16.42;12.80;;;;;;;10.51;100.00;95488.47;5127587;28;20090;-60
2022/04/25 06:23:33;;;;;;;19.98;15.20;;;;;;;10.67;100.00;95496.34;5100168;28;20078;-58
2022/04/25 06:26:01;;;;;;;16.48;12.63;;;;;;;10.46;100.00;95494.25;5122087;28;20058;-57
2022/04/25 06:28:29;;;;;;;21.42;13.90;;;;;;;10.58;100.00;95490.25;5122266;28;20078;-58
2022/04/25 06:30:59;;;;;;;20.05;15.20;;;;;;;10.65;100.00;95495.69;5127348;28;20055;-58
2022/04/25 06:33:27;;;;;;;18.60;14.45;;;;;;;10.55;100.00;95493.22;5116224;28;20517;-57
2022/04/25 06:35:56;;;;;;;20.05;14.63;;;;;;;10.69;100.00;95504.88;5127459;28;20102;-58
2022/04/25 06:38:24;;;;;;;21.02;15.82;;;;;;;10.69;100.00;95504.88;5119568;28;20124;-57
2022/04/25 06:40:52;;;;;;;19.67;15.00;;;;;;;10.66;100.00;95511.31;5115422;28;20082;-57
2022/04/25 06:43:20;;;;;;;20.45;14.73;;;;;;;10.73;100.00;95508.81;5126411;27;20073;-59
2022/04/25 06:45:49;;;;;;;19.05;13.80;;;;;;;10.72;100.00;95516.91;5120955;27;20070;-59
2022/04/25 06:48:18;;;;;;;19.30;15.23;;;;;;;10.87;100.00;95509.94;5124905;27;20063;-60
2022/04/25 06:50:50;;;;;;;19.85;15.27;;;;;;;11.00;100.00;95510.22;5126858;27;20082;-59
2022/04/25 06:53:19;;;;;;;20.10;14.25;;;;;;;10.94;100.00;95518.81;5122319;27;20078;-58
2022/04/25 06:55:47;;;;;;;18.65;14.60;;;;;;;10.90;100.00;95513.06;5118053;27;20453;-57
2022/04/25 06:58:15;;;;;;;22.10;14.75;;;;;;;11.09;100.00;95514.50;5119261;27;20075;-57
2022/04/25 07:00:44;;;;;;;17.70;13.05;;;;;;;10.83;100.00;95514.72;5121589;27;20054;-59
2022/04/25 07:03:12;;;;;;;18.67;14.27;;;;;;;11.04;100.00;95523.91;5111703;27;20071;-58
2022/04/25 07:05:43;;;;;;;18.15;12.63;;;;;;;11.02;100.00;95515.34;5118464;27;20079;-60
2022/04/25 07:08:11;;;;;;;18.92;14.75;;;;;;;11.30;100.00;95521.81;5119972;27;20120;-59
2022/04/25 07:10:40;;;;;;;20.35;15.15;;;;;;;11.72;100.00;95525.88;5121380;27;20082;-59
2022/04/25 07:13:08;;;;;;;15.73;11.80;;;;;;;11.39;100.00;95520.78;5121142;27;20071;-60
2022/04/25 07:15:38;;;;;;;19.27;15.40;;;;;;;11.60;100.00;95524.66;5124037;27;21218;-57
2022/04/25 07:18:06;;;;;;;21.27;15.27;;;;;;;11.84;100.00;95521.88;5122528;27;20466;-56
2022/04/25 07:20:35;;;;;;;18.02;15.02;;;;;;;11.56;100.00;95525.97;5117617;27;20082;-60
2022/04/25 07:28:53;;;;;;;18.27;13.30;;;;;;;11.77;100.00;95530.66;5112794;27;20071;-58
2022/04/25 07:31:21;;;;;;;17.83;13.50;;;;;;;11.97;100.00;95531.84;5128552;27;20066;-58
2022/04/25 07:33:49;;;;;;;20.73;15.77;;;;;;;11.85;100.00;95525.34;5116968;27;20067;-56
2022/04/25 07:36:21;;;;;;;16.52;12.80;;;;;;;12.03;100.00;95536.44;5114503;27;20090;-57
2022/04/25 07:39:15;;;;;;;21.13;15.10;;;;;;;12.42;100.00;95538.13;5116195;27;20078;-59
2022/04/25 07:41:44;;;;;;;10.05;8.10;;;;;;;11.80;100.00;95544.34;5124032;27;20517;-57
2022/04/25 07:44:18;;;;;;;17.00;10.80;;;;;;;11.54;100.00;95543.81;5120657;27;20101;-59
2022/04/25 07:46:46;;;;;;;18.17;15.00;;;;;;;11.76;100.00;95550.13;5121658;27;20063;-59
2022/04/25 07:49:15;;;;;;;16.17;13.13;;;;;;;11.70;100.00;95548.16;5126669;27;20063;-59
2022/04/25 07:51:43;;;;;;;17.23;14.30;;;;;;;11.61;100.00;95556.16;5128003;27;20650;-59
2022/04/25 07:54:12;;;;;;;17.50;13.65;;;;;;;11.77;100.00;95557.88;5119441;27;20083;-60
2022/04/25 07:56:43;;;;;;;18.75;14.52;;;;;;;11.83;100.00;95559.81;5126621;27;20086;-57
2022/04/25 07:59:11;;;;;;;;;;;;;;;12.00;100.00;95557.09;5123399;27;20071;-57
2022/04/25 08:01:39;;;;;;;15.52;12.32;;;;;;;11.70;100.00;95564.00;5122744;27;19963;-59
2022/04/25 08:04:08;;;;;;;15.40;12.45;;;;;;;11.96;100.00;95556.63;5120149;27;20071;-60
2022/04/25 08:06:36;;;;;;;14.70;12.25;;;;;;;11.92;100.00;95562.44;5120331;27;20055;-58
2022/04/25 08:09:05;;;;;;;16.88;14.20;;;;;;;12.01;100.00;95567.50;5126362;27;20449;-60
2022/04/25 08:11:33;;;;;;;15.27;13.50;;;;;;;12.05;100.00;95558.22;5130736;27;20138;-58
2022/04/25 08:19:33;;;;;;;13.80;11.45;;;;;;;11.81;100.00;95571.56;5092682;27;20487;-59
2022/04/25 08:22:06;;;;;;;14.63;11.82;;;;;;;11.80;100.00;95570.75;5122986;27;20070;-58
2022/04/25 08:24:36;;;;;;;15.10;12.23;;;;;;;11.68;100.00;95581.88;5128169;27;20055;-60
2022/04/25 08:27:05;;;;;;;13.82;11.93;;;;;;;11.82;100.00;95583.78;5123948;27;20078;-57
2022/04/25 08:29:35;;;;;;;15.45;13.13;;;;;;;11.96;100.00;95579.59;5120564;27;20094;-57
2022/04/25 08:32:04;;;;;;;14.63;12.93;;;;;;;12.05;100.00;95589.13;5124628;27;20078;-58
2022/04/25 08:34:32;;;;;;;15.68;13.45;;;;;;;12.38;100.00;95588.88;5117036;27;20081;-60
2022/04/25 08:37:01;;;;;;;14.63;13.02;;;;;;;12.61;100.00;95587.03;5123524;27;20477;-59
2022/04/25 08:39:29;;;;;;;16.67;13.77;;;;;;;12.87;100.00;95584.00;5126245;27;20062;-60
2022/04/25 08:42:01;;;;;;;15.70;12.77;;;;;;;13.12;100.00;95589.88;5120327;27;20485;-57
2022/04/25 08:44:31;;;;;;;12.90;11.07;;;;;;;13.15;100.00;95591.34;5126775;27;20086;-59
2022/04/25 08:47:02;;;;;;;9.35;8.32;;;;;;;13.12;100.00;95591.69;5118606;27;20519;-58
2022/04/25 08:49:31;;;;;;;12.48;11.15;;;;;;;13.37;100.00;95597.56;5115706;27;20074;-57
2022/04/25 08:52:01;;;;;;;12.00;10.63;;;;;;;13.69;100.00;95597.16;5114771;27;20434;-60
2022/04/25 08:54:31;;;;;;;9.63;8.60;;;;;;;13.64;100.00;95594.25;5116744;27;20074;-59
2022/04/25 08:57:00;;;;;;;10.50;9.00;;;;;;;13.39;100.00;95608.81;5121892;27;20062;-60
2022/04/25 08:59:28;;;;;;;10.88;9.40;;;;;;;13.74;100.00;95604.56;5115606;27;20094;-57
2022/04/25 09:01:57;;;;;;;11.02;9.70;;;;;;;14.01;100.00;95598.56;5128767;27;20065;-59
2022/04/25 09:04:27;;;;;;;10.55;9.45;;;;;;;13.82;100.00;95603.63;5109062;28;20075;-59
2022/04/25 09:06:56;;;;;;;11.52;9.88;;;;;;;14.29;100.00;95604.97;5127974;27;20062;-60
2022/04/25 09:09:24;;;;;;;11.52;10.32;;;;;;;14.72;100.00;95611.13;5116040;27;20071;-59
2022/04/25 09:12:11;;;;;;;11.32;10.23;;;;;;;14.64;100.00;95614.72;5122084;27;20430;-59
2022/04/25 09:14:41;;;;;;;11.50;10.07;;;;;;;14.78;100.00;95607.69;5111897;27;20445;-60
2022/04/25 09:17:09;;;;;;;10.03;8.77;;;;;;;14.29;100.00;95616.41;5126387;27;20059;-59
2022/04/25 09:19:40;;;;;;;9.35;7.05;;;;;;;14.27;100.00;95610.47;5090287;28;20067;-59
2022/04/25 09:22:09;;;;;;;;;;;;;;;14.30;100.00;95615.38;5122126;27;20067;-59
2022/04/25 09:24:44;;;;;;;9.70;8.70;;;;;;;13.65;100.00;95613.63;5118277;27;19958;-60
2022/04/25 09:27:16;;;;;;;12.27;10.95;;;;;;;13.61;100.00;95633.53;5116596;28;20075;-57
2022/04/25 09:29:48;;;;;;;12.23;10.52;;;;;;;13.59;100.00;95635.53;5127132;28;20083;-59
2022/04/25 09:32:18;;;;;;;13.52;11.63;;;;;;;13.96;100.00;95631.94;5110800;28;20074;-58
2022/04/25 09:35:04;;;;;;;15.18;12.15;;;;;;;13.97;100.00;95629.13;5115666;28;20070;-59
2022/04/25 09:37:43;;;;;;;15.02;13.43;;;;;;;14.21;100.00;95638.56;5110556;28;20066;-58
2022/04/25 09:40:15;;;;;;;13.95;11.55;;;;;;;14.41;100.00;95636.09;5126083;28;20067;-59
2022/04/25 09:42:43;;;;;;;15.50;12.98;;;;;;;14.23;100.00;95638.38;5122132;28;20078;-56
2022/04/25 09:45:11;;;;;;;12.88;11.35;;;;;;;14.04;100.00;95636.31;5115549;28;20083;-60
2022/04/25 09:47:40;;;;;;;14.05;12.55;;;;;;;14.25;100.00;95637.19;5127516;28;20082;-57
2022/04/25 09:50:11;;;;;;;13.20;10.98;;;;;;;13.61;100.00;95644.13;5121953;28;20097;-59
2022/04/25 09:53:03;;;;;;;13.88;11.88;;;;;;;13.76;100.00;95639.63;5113044;28;20510;-59
2022/04/25 09:55:33;;;;;;;14.52;13.02;;;;;;;14.14;100.00;95640.31;5121153;28;20067;-59
2022/04/25 09:58:13;;;;;;;15.23;13.05;;;;;;;14.45;100.00;95641.84;5122072;28;20070;-59
2022/04/25 10:00:41;;;;;;;;;;;;;;;14.84;100.00;95641.44;5128055;28;20067;-59
2022/04/25 10:03:10;;;;;;;13.95;11.98;;;;;;;14.87;100.00;95635.75;5118813;28;19947;-60
2022/04/25 10:05:42;;;;;;;12.95;10.93;;;;;;;14.41;100.00;95643.25;5122462;28;20086;-60
2022/04/25 10:08:11;;;;;;;14.25;11.73;;;;;;;14.49;100.00;95645.78;5120653;28;20473;-56
2022/04/25 10:10:41;;;;;;;14.38;12.23;;;;;;;14.52;100.00;95650.75;5120155;28;20074;-58
2022/04/25 10:13:13;;;;;;;17.17;13.23;;;;;;;15.28;100.00;95647.47;5122151;28;20075;-57
2022/04/25 10:15:43;;;;;;;13.63;12.25;;;;;;;14.98;100.00;95652.19;5123469;28;20401;-57
2022/04/25 10:18:12;;;;;;;14.32;12.88;;;;;;;14.85;100.00;95648.38;5121237;27;20089;-60
2022/04/25 10:20:43;;;;;;;12.10;10.80;;;;;;;14.70;100.00;95653.78;5125726;27;20089;-59
2022/04/25 10:23:12;;;;;;;12.52;11.23;;;;;;;14.58;100.00;95655.28;5116850;27;20059;-60
2022/04/25 10:25:46;;;;;;;14.07;12.45;;;;;;;14.96;100.00;95652.34;5125964;27;20086;-59
2022/04/25 10:28:17;;;;;;;12.25;10.98;;;;;;;14.53;100.00;95659.53;5123825;27;20059;-59
2022/04/25 10:30:49;;;;;;;12.68;11.45;;;;;;;14.45;100.00;95650.66;5114774;27;20074;-59
2022/04/25 10:33:18;;;;;;;11.85;10.23;;;;;;;14.56;100.00;95664.47;5122629;27;20063;-58
2022/04/25 10:35:50;;;;;;;14.00;12.57;;;;;;;14.33;100.00;95654.78;5127730;27;20105;-59
2022/04/25 10:38:50;;;;;;;13.85;11.45;;;;;;;14.91;100.00;95660.09;5118528;27;20486;-59
2022/04/25 10:44:56;;;;;;;13.82;12.35;;;;;;;15.56;100.00;95661.59;5130616;27;20436;-59
2022/04/25 10:47:25;;;;;;;12.90;11.00;;;;;;;15.19;100.00;95658.25;5126853;27;21514;-58
2022/04/25 10:50:02;;;;;;;13.73;11.60;;;;;;;15.92;100.00;95662.41;5125046;27;20465;-57
2022/04/25 10:52:55;;;;;;;13.80;11.77;;;;;;;15.16;100.00;95663.13;5123872;27;20059;-59
2022/04/25 10:55:38;;;;;;;13.05;11.75;;;;;;;15.23;100.00;95671.16;5125324;27;20069;-59
2022/04/25 10:58:21;;;;;;;13.48;11.15;;;;;;;15.03;100.00;95655.88;5116428;27;20069;-58
2022/04/25 11:00:53;;;;;;;12.80;11.15;;;;;;;15.06;100.00;95657.34;5096054;28;20088;-59
2022/04/25 11:03:30;;;;;;;14.80;13.30;;;;;;;15.46;100.00;95660.28;5128553;27;20074;-58
2022/04/25 11:06:03;;;;;;;14.70;13.20;;;;;;;16.12;100.00;95655.34;5111305;27;20086;-60
2022/04/25 11:08:38;;;;;;;15.02;13.45;;;;;;;16.41;100.00;95650.72;5127385;27;20524;-60
2022/04/25 11:11:09;;;;;;;14.07;12.57;;;;;;;15.70;100.00;95659.88;5117735;27;20079;-60
2022/04/25 11:14:11;;;;;;;10.57;8.80;;;;;;;15.03;100.00;95665.69;5115401;27;20070;-57
2022/04/25 11:16:40;;;;;;;14.55;13.05;;;;;;;15.56;100.00;95668.75;5113935;27;20074;-59
2022/04/25 11:19:21;;;;;;;14.77;13.10;;;;;;;16.23;100.00;95661.94;5111342;28;20067;-59
2022/04/25 11:21:53;;;;;;;11.98;10.70;;;;;;;15.71;100.00;95673.97;5124107;27;20050;-59
2022/04/25 11:24:38;;;;;;;15.00;13.00;;;;;;;16.52;100.00;95661.63;5114091;27;20070;-60
2022/04/25 11:27:11;;;;;;;13.85;12.35;;;;;;;16.40;100.00;95657.88;5118081;27;20075;-60
2022/04/25 11:29:45;;;;;;;14.25;12.27;;;;;;;17.09;100.00;95660.28;5127338;27;20081;-60
2022/04/25 11:32:30;;;;;;;14.13;12.63;;;;;;;17.11;100.00;95661.94;5110932;27;20505;-60
2022/04/25 11:35:02;;;;;;;13.63;12.23;;;;;;;17.07;100.00;95666.84;5118414;27;20425;-59
2022/04/25 11:37:31;;;;;;;11.30;10.18;;;;;;;17.30;100.00;95666.41;5126725;27;20067;-60
2022/04/25 11:40:04;;;;;;;13.87;11.07;;;;;;;17.37;100.00;95667.22;5131137;27;20070;-60
2022/04/25 11:42:33;;;;;;;10.65;9.05;;;;;;;16.63;100.00;95662.88;5123744;27;20069;-61
2022/04/25 11:45:03;;;;;;;12.57;11.27;;;;;;;16.21;100.00;95667.47;5120039;27;20083;-60
2022/04/25 11:47:32;;;;;;;12.97;11.10;;;;;;;16.57;100.00;95672.47;5124346;27;20079;-57
2022/04/25 11:50:02;;;;;;;11.07;9.95;;;;;;;16.68;100.00;95671.06;5122083;27;20063;-60
2022/04/25 11:52:30;;;;;;;;;;;;;;;16.11;100.00;95681.13;5126141;27;20060;-56
2022/04/25 11:55:00;;;;;;;11.48;9.45;;;;;;;16.47;100.00;95666.72;5122429;27;19951;-59
2022/04/25 11:57:29;;;;;;;12.50;11.25;;;;;;;15.90;100.00;95678.59;5115822;27;20074;-56
2022/04/25 12:00:11;;;;;;;11.57;10.32;;;;;;;15.72;100.00;95688.88;5128837;27;20550;-57
2022/04/25 12:02:40;;;;;;;13.25;11.02;;;;;;;16.34;100.00;95675.50;5118438;27;20058;-58
2022/04/25 12:05:09;;;;;;;11.35;10.15;;;;;;;16.50;100.00;95673.47;5122208;27;20070;-58
2022/04/25 12:15:33;;;;;;;12.18;10.88;;;;;;;16.82;100.00;95678.06;5119013;27;20074;-58